SBCGSBDN

Guest
Details From SBCG - Campo Grande
To SBDN - Presidente Prudente
Flight Number -
Tags generated
Created
Modified
Stats Distance 209 nm / 386 km
Max Altitude 13,300 ft / 4,054 m
Waypoints 5
Social Downloads 0
Likes 0
Share VATSIM

Download

Looking for another format? Having issues loading an existing format? Contact us
Advertisement - Login to hide

Notes

Basic altitude profile: - Ascent Rate: 2500ft/min - Ascent Speed: 250kts - Cruise Altitude: 35000ft - Cruise Speed: 420kts - Descent Rate: 1500ft/min - Descent Speed: 250kts Options: - Use NATs: yes - Use PACOTS: yes - Use low airways: yes - Use high airways: no

Route

SBCG IRLAM W58 PRR SBDN

ID Type Via Altitude Latitude Longitude Leg Dist Tot Dist Heading (true) Name
O SBCG APT - 0 ft / 0 m -20.46867˚ -54.67250˚ - 0 nm - Campo Grande
IRLAM FIX - 13,300 ft / 4,054 m -20.80100˚ -54.05333˚ 40 nm 40 nm 120° / 120° -
DOMIM FIX W58 (AWY-LO) 7,500 ft / 2,286 m -21.97450˚ -51.81583˚ 143 nm 183 nm 120° / 119° -
PRR VOR W58 (AWY-LO) 7,500 ft / 2,286 m -22.17306˚ -51.42635˚ 24 nm 208 nm 119° / 119° PRUDENTE VOR-DME
O SBDN APT - 0 ft / 0 m -22.17504˚ -51.42464˚ 0 nm 208 nm 141° / 141° Presidente Prudente

Altitude Profile

Advertisement - Login to hide

Weather


0- 5 10 15 20 25 30 35+ Temperature / ° C

Clouds and Precipitation
Forecast for 2017-12-17 06:00 UTC. Updated 2 hours ago

Ground ~20,000 ft ~40,000 ft Winds

SBCG

Details ICAO SBCG (CGR)
Name Campo Grande
Region Brazil
Timezone America/Campo_Grande (UTC-3.0)
Stats Elevation 1,833 ft / 559 m (AMSL)
Location -20.468666° -54.672500°
Runways 1
Magnetic Variation 17.532° W

METAR

SBCG 170400Z 05009KT 9999 FEW030 23/20 Q1010

Decode

TAF

TAF SBCG 162130Z 1700/1724 34008KT 9999 BKN040 FEW045TCU TN23/1708Z TX33/1718Z BECMG 1700/1702 03007KT FEW035 BECMG 1710/1712 35010KT SCT040 PROB30 1719/1720 VCSH SCT040 FEW045TCU RMK PER

Decode

Departure Runways

ID Width Length Bearing (true) Bearing (mag) Surface Threshold Offset Overrun Length
06 141 ft / 43 m 8,563 ft / 2,610 m 40.84° 58.37° Asphalt 0 ft / 0 m 192 ft / 59 m
24 141 ft / 43 m 8,563 ft / 2,610 m 220.83° 238.36° Asphalt 0 ft / 0 m 190 ft / 58 m

SBDN

Details ICAO SBDN (PPB)
Name Presidente Prudente
Region Brazil
Timezone America/Sao_Paulo (UTC-2.0)
Stats Elevation 1,476 ft / 450 m (AMSL)
Location -22.175042° -51.424639°
Runways 1
Magnetic Variation 19.162° W

METAR

Not found

TAF

TAF SBDN 162130Z 1700/1712 04007KT 9999 FEW040 TX30/1700Z TN23/1708Z BECMG 1700/1702 10005KT CAVOK BECMG 1710/1712 03008KT 9999 SCT040 RMK PER

Decode

Destination Runways

ID Width Length Bearing (true) Bearing (mag) Surface Threshold Offset Overrun Length
12 115 ft / 35 m 6,929 ft / 2,112 m 98.36° 117.52° Asphalt 0 ft / 0 m 0 ft / 0 m
30 115 ft / 35 m 6,929 ft / 2,112 m 278.35° 297.51° Asphalt 0 ft / 0 m 0 ft / 0 m

Popular Alternatives